sensor_id;sensor_type;location;lat;lon;timestamp;temperature;humidity
48946;DHT22;34999;50.940;3.998;2023-10-13T00:01:57;17.80;99.90
48946;DHT22;34999;50.940;3.998;2023-10-13T00:04:27;17.70;99.90
48946;DHT22;34999;50.940;3.998;2023-10-13T00:06:56;17.80;99.90
48946;DHT22;34999;50.940;3.998;2023-10-13T00:09:26;17.70;99.90
48946;DHT22;34999;50.940;3.998;2023-10-13T00:12:00;17.80;99.90
48946;DHT22;34999;50.940;3.998;2023-10-13T00:14:31;17.70;99.90
48946;DHT22;34999;50.940;3.998;2023-10-13T00:17:02;17.70;99.90
48946;DHT22;34999;50.940;3.998;2023-10-13T00:19:33;17.70;99.90
48946;DHT22;34999;50.940;3.998;2023-10-13T00:22:07;17.80;99.90
48946;DHT22;34999;50.940;3.998;2023-10-13T00:24:41;17.70;99.90
48946;DHT22;34999;50.940;3.998;2023-10-13T00:27:14;17.70;99.90
48946;DHT22;34999;50.940;3.998;2023-10-13T00:30:04;17.80;99.90
48946;DHT22;34999;50.940;3.998;2023-10-13T00:32:51;17.80;99.90
48946;DHT22;34999;50.940;3.998;2023-10-13T00:35:22;17.80;99.90
48946;DHT22;34999;50.940;3.998;2023-10-13T00:37:56;17.80;99.90
48946;DHT22;34999;50.940;3.998;2023-10-13T00:40:27;17.80;99.90
48946;DHT22;34999;50.940;3.998;2023-10-13T00:43:10;17.80;99.90
48946;DHT22;34999;50.940;3.998;2023-10-13T00:45:56;17.80;99.90
48946;DHT22;34999;50.940;3.998;2023-10-13T00:48:28;17.70;99.90
48946;DHT22;34999;50.940;3.998;2023-10-13T00:51:01;17.80;99.90
48946;DHT22;34999;50.940;3.998;2023-10-13T00:53:35;17.90;99.90
48946;DHT22;34999;50.940;3.998;2023-10-13T00:56:06;17.90;99.90
48946;DHT22;34999;50.940;3.998;2023-10-13T00:58:36;17.90;99.90
48946;DHT22;34999;50.940;3.998;2023-10-13T01:01:06;17.90;99.90
48946;DHT22;34999;50.940;3.998;2023-10-13T01:03:46;17.90;99.90
48946;DHT22;34999;50.940;3.998;2023-10-13T01:06:19;17.90;99.90
48946;DHT22;34999;50.940;3.998;2023-10-13T01:08:48;17.90;99.90
48946;DHT22;34999;50.940;3.998;2023-10-13T01:11:20;17.90;99.90
48946;DHT22;34999;50.940;3.998;2023-10-13T01:13:51;18.00;99.90
48946;DHT22;34999;50.940;3.998;2023-10-13T01:16:20;17.90;99.90
48946;DHT22;34999;50.940;3.998;2023-10-13T01:18:50;17.90;99.90
48946;DHT22;34999;50.940;3.998;2023-10-13T01:21:19;17.90;99.90
48946;DHT22;34999;50.940;3.998;2023-10-13T01:23:49;18.00;99.90
48946;DHT22;34999;50.940;3.998;2023-10-13T01:26:18;17.90;99.90
48946;DHT22;34999;50.940;3.998;2023-10-13T01:28:51;17.90;99.90
48946;DHT22;34999;50.940;3.998;2023-10-13T01:31:21;18.00;99.90
48946;DHT22;34999;50.940;3.998;2023-10-13T01:33:54;18.10;99.90
48946;DHT22;34999;50.940;3.998;2023-10-13T01:36:27;18.10;99.90
48946;DHT22;34999;50.940;3.998;2023-10-13T01:38:56;18.10;99.90
48946;DHT22;34999;50.940;3.998;2023-10-13T01:41:28;18.10;99.90
48946;DHT22;34999;50.940;3.998;2023-10-13T01:43:58;18.10;99.90
48946;DHT22;34999;50.940;3.998;2023-10-13T01:46:26;18.20;99.90
48946;DHT22;34999;50.940;3.998;2023-10-13T01:48:55;18.20;99.90
48946;DHT22;34999;50.940;3.998;2023-10-13T01:51:27;18.20;99.90
48946;DHT22;34999;50.940;3.998;2023-10-13T01:53:57;18.20;99.90
48946;DHT22;34999;50.940;3.998;2023-10-13T01:56:25;18.20;99.90
48946;DHT22;34999;50.940;3.998;2023-10-13T01:58:58;18.20;99.90
48946;DHT22;34999;50.940;3.998;2023-10-13T02:01:33;18.20;99.90
48946;DHT22;34999;50.940;3.998;2023-10-13T02:04:02;18.30;99.90
48946;DHT22;34999;50.940;3.998;2023-10-13T02:06:32;18.30;99.90
48946;DHT22;34999;50.940;3.998;2023-10-13T02:09:03;18.30;99.90
48946;DHT22;34999;50.940;3.998;2023-10-13T02:11:38;18.30;99.90
48946;DHT22;34999;50.940;3.998;2023-10-13T02:14:06;18.30;99.90
48946;DHT22;34999;50.940;3.998;2023-10-13T02:16:34;18.30;99.90
48946;DHT22;34999;50.940;3.998;2023-10-13T02:19:04;18.30;99.90
48946;DHT22;34999;50.940;3.998;2023-10-13T02:21:32;18.30;99.90
48946;DHT22;34999;50.940;3.998;2023-10-13T02:24:08;18.30;99.90
48946;DHT22;34999;50.940;3.998;2023-10-13T02:26:41;18.30;99.90
48946;DHT22;34999;50.940;3.998;2023-10-13T02:29:08;18.30;99.90
48946;DHT22;34999;50.940;3.998;2023-10-13T02:31:41;18.30;99.90
48946;DHT22;34999;50.940;3.998;2023-10-13T02:34:09;18.30;99.90
48946;DHT22;34999;50.940;3.998;2023-10-13T02:36:40;18.30;99.90
48946;DHT22;34999;50.940;3.998;2023-10-13T02:39:18;18.30;99.90
48946;DHT22;34999;50.940;3.998;2023-10-13T02:41:52;18.40;99.90
48946;DHT22;34999;50.940;3.998;2023-10-13T02:44:20;18.30;99.90
48946;DHT22;34999;50.940;3.998;2023-10-13T02:46:54;18.30;99.90
48946;DHT22;34999;50.940;3.998;2023-10-13T02:49:24;18.20;99.90
48946;DHT22;34999;50.940;3.998;2023-10-13T02:51:53;18.30;99.90
48946;DHT22;34999;50.940;3.998;2023-10-13T02:54:24;18.20;99.90
48946;DHT22;34999;50.940;3.998;2023-10-13T02:56:57;18.30;99.90
48946;DHT22;34999;50.940;3.998;2023-10-13T02:59:28;18.30;99.90
48946;DHT22;34999;50.940;3.998;2023-10-13T03:02:06;18.20;99.90
48946;DHT22;34999;50.940;3.998;2023-10-13T03:04:46;18.20;99.90
48946;DHT22;34999;50.940;3.998;2023-10-13T03:07:13;18.30;99.90
48946;DHT22;34999;50.940;3.998;2023-10-13T03:09:51;18.30;99.90
48946;DHT22;34999;50.940;3.998;2023-10-13T03:12:19;18.20;99.90
48946;DHT22;34999;50.940;3.998;2023-10-13T03:14:48;18.30;99.90
48946;DHT22;34999;50.940;3.998;2023-10-13T03:17:16;18.20;99.90
48946;DHT22;34999;50.940;3.998;2023-10-13T03:19:46;18.30;99.90
48946;DHT22;34999;50.940;3.998;2023-10-13T03:22:18;18.20;99.90
48946;DHT22;34999;50.940;3.998;2023-10-13T03:24:59;18.20;99.90
48946;DHT22;34999;50.940;3.998;2023-10-13T03:27:32;18.20;99.90
48946;DHT22;34999;50.940;3.998;2023-10-13T03:30:08;18.20;99.90
48946;DHT22;34999;50.940;3.998;2023-10-13T03:32:42;18.20;99.90
48946;DHT22;34999;50.940;3.998;2023-10-13T03:35:14;18.20;99.90
48946;DHT22;34999;50.940;3.998;2023-10-13T03:37:51;18.20;99.90
48946;DHT22;34999;50.940;3.998;2023-10-13T03:40:22;18.20;99.90
48946;DHT22;34999;50.940;3.998;2023-10-13T03:43:10;18.20;99.90
48946;DHT22;34999;50.940;3.998;2023-10-13T03:45:39;18.20;99.90
48946;DHT22;34999;50.940;3.998;2023-10-13T03:48:11;18.20;99.90
48946;DHT22;34999;50.940;3.998;2023-10-13T03:50:57;18.20;99.90
48946;DHT22;34999;50.940;3.998;2023-10-13T03:53:35;18.20;99.90
48946;DHT22;34999;50.940;3.998;2023-10-13T03:56:19;18.20;99.90
48946;DHT22;34999;50.940;3.998;2023-10-13T03:58:59;18.20;99.90
48946;DHT22;34999;50.940;3.998;2023-10-13T04:01:31;18.20;99.90
48946;DHT22;34999;50.940;3.998;2023-10-13T04:04:08;18.20;99.90
48946;DHT22;34999;50.940;3.998;2023-10-13T04:06:38;18.20;99.90
48946;DHT22;34999;50.940;3.998;2023-10-13T04:09:40;18.20;99.90
48946;DHT22;34999;50.940;3.998;2023-10-13T04:12:27;18.20;99.90
48946;DHT22;34999;50.940;3.998;2023-10-13T04:15:10;18.20;99.90
48946;DHT22;34999;50.940;3.998;2023-10-13T04:17:50;18.20;99.90
48946;DHT22;34999;50.940;3.998;2023-10-13T04:20:19;18.20;99.90
48946;DHT22;34999;50.940;3.998;2023-10-13T04:23:00;18.10;99.90
48946;DHT22;34999;50.940;3.998;2023-10-13T04:25:53;18.10;99.90
48946;DHT22;34999;50.940;3.998;2023-10-13T04:28:36;18.10;99.90
48946;DHT22;34999;50.940;3.998;2023-10-13T04:31:17;18.10;99.90
48946;DHT22;34999;50.940;3.998;2023-10-13T04:34:04;18.00;99.90
48946;DHT22;34999;50.940;3.998;2023-10-13T04:36:46;18.00;99.90
48946;DHT22;34999;50.940;3.998;2023-10-13T04:39:14;18.00;99.90
48946;DHT22;34999;50.940;3.998;2023-10-13T04:41:56;18.00;99.90
48946;DHT22;34999;50.940;3.998;2023-10-13T04:44:26;18.00;99.90
48946;DHT22;34999;50.940;3.998;2023-10-13T04:47:12;18.00;99.90
48946;DHT22;34999;50.940;3.998;2023-10-13T04:49:50;18.00;99.90
48946;DHT22;34999;50.940;3.998;2023-10-13T04:52:19;18.00;99.90
48946;DHT22;34999;50.940;3.998;2023-10-13T04:55:18;18.00;99.90
48946;DHT22;34999;50.940;3.998;2023-10-13T04:58:00;18.00;99.90
48946;DHT22;34999;50.940;3.998;2023-10-13T05:00:43;18.00;99.90
48946;DHT22;34999;50.940;3.998;2023-10-13T05:03:36;18.00;99.90
48946;DHT22;34999;50.940;3.998;2023-10-13T05:06:48;18.00;99.90
48946;DHT22;34999;50.940;3.998;2023-10-13T05:09:34;18.00;99.90
48946;DHT22;34999;50.940;3.998;2023-10-13T05:12:35;18.00;99.90
48946;DHT22;34999;50.940;3.998;2023-10-13T05:15:20;18.10;99.90
48946;DHT22;34999;50.940;3.998;2023-10-13T05:18:07;18.10;99.90
48946;DHT22;34999;50.940;3.998;2023-10-13T05:20:55;18.10;99.90
48946;DHT22;34999;50.940;3.998;2023-10-13T05:23:41;18.10;99.90
48946;DHT22;34999;50.940;3.998;2023-10-13T05:26:28;18.10;99.90
48946;DHT22;34999;50.940;3.998;2023-10-13T05:29:16;18.10;99.90
48946;DHT22;34999;50.940;3.998;2023-10-13T05:32:02;18.10;99.90
48946;DHT22;34999;50.940;3.998;2023-10-13T05:34:49;18.10;99.90
48946;DHT22;34999;50.940;3.998;2023-10-13T05:37:35;18.10;99.90
48946;DHT22;34999;50.940;3.998;2023-10-13T05:40:21;18.10;99.90
48946;DHT22;34999;50.940;3.998;2023-10-13T05:43:07;18.10;99.90
48946;DHT22;34999;50.940;3.998;2023-10-13T05:45:54;18.10;99.90
48946;DHT22;34999;50.940;3.998;2023-10-13T05:48:40;18.10;99.90
48946;DHT22;34999;50.940;3.998;2023-10-13T05:51:32;18.10;99.90
48946;DHT22;34999;50.940;3.998;2023-10-13T05:54:00;18.20;99.90
48946;DHT22;34999;50.940;3.998;2023-10-13T05:56:47;18.20;99.90
48946;DHT22;34999;50.940;3.998;2023-10-13T05:59:35;18.20;99.90
48946;DHT22;34999;50.940;3.998;2023-10-13T06:02:21;18.20;99.90
48946;DHT22;34999;50.940;3.998;2023-10-13T06:05:09;18.20;99.90
48946;DHT22;34999;50.940;3.998;2023-10-13T06:07:57;18.20;99.90
48946;DHT22;34999;50.940;3.998;2023-10-13T06:10:44;18.20;99.90
48946;DHT22;34999;50.940;3.998;2023-10-13T06:13:30;18.20;99.90
48946;DHT22;34999;50.940;3.998;2023-10-13T06:16:16;18.20;99.90
48946;DHT22;34999;50.940;3.998;2023-10-13T06:19:02;18.10;99.90
48946;DHT22;34999;50.940;3.998;2023-10-13T06:21:49;18.10;99.90
48946;DHT22;34999;50.940;3.998;2023-10-13T06:24:36;18.10;99.90
48946;DHT22;34999;50.940;3.998;2023-10-13T06:27:22;18.10;99.90
48946;DHT22;34999;50.940;3.998;2023-10-13T06:30:08;18.10;99.90
48946;DHT22;34999;50.940;3.998;2023-10-13T06:32:37;18.10;99.90
48946;DHT22;34999;50.940;3.998;2023-10-13T06:35:07;18.10;99.90
48946;DHT22;34999;50.940;3.998;2023-10-13T06:37:47;18.10;99.90
48946;DHT22;34999;50.940;3.998;2023-10-13T06:40:17;18.00;99.90
48946;DHT22;34999;50.940;3.998;2023-10-13T06:43:01;18.00;99.90
48946;DHT22;34999;50.940;3.998;2023-10-13T06:45:44;18.10;99.90
48946;DHT22;34999;50.940;3.998;2023-10-13T06:48:18;18.10;99.90
48946;DHT22;34999;50.940;3.998;2023-10-13T06:50:50;18.10;99.90
48946;DHT22;34999;50.940;3.998;2023-10-13T06:53:19;18.10;99.90
48946;DHT22;34999;50.940;3.998;2023-10-13T06:55:49;18.20;99.90
48946;DHT22;34999;50.940;3.998;2023-10-13T06:58:19;18.30;99.90
48946;DHT22;34999;50.940;3.998;2023-10-13T07:00:51;18.30;99.90
48946;DHT22;34999;50.940;3.998;2023-10-13T07:03:25;18.30;99.90
48946;DHT22;34999;50.940;3.998;2023-10-13T07:05:54;18.30;99.90
48946;DHT22;34999;50.940;3.998;2023-10-13T07:08:26;18.40;99.90
48946;DHT22;34999;50.940;3.998;2023-10-13T07:10:59;18.50;99.90
48946;DHT22;34999;50.940;3.998;2023-10-13T07:13:32;18.50;99.90
48946;DHT22;34999;50.940;3.998;2023-10-13T07:16:05;18.60;99.90
48946;DHT22;34999;50.940;3.998;2023-10-13T07:18:54;18.60;99.90
48946;DHT22;34999;50.940;3.998;2023-10-13T07:21:23;18.60;99.90
48946;DHT22;34999;50.940;3.998;2023-10-13T07:23:59;18.70;99.90
48946;DHT22;34999;50.940;3.998;2023-10-13T07:26:38;18.70;99.90
48946;DHT22;34999;50.940;3.998;2023-10-13T07:29:11;18.70;99.90
48946;DHT22;34999;50.940;3.998;2023-10-13T07:31:40;18.80;99.90
48946;DHT22;34999;50.940;3.998;2023-10-13T07:34:12;18.80;99.90
48946;DHT22;34999;50.940;3.998;2023-10-13T07:36:53;18.90;99.90
48946;DHT22;34999;50.940;3.998;2023-10-13T07:39:27;18.90;99.90
48946;DHT22;34999;50.940;3.998;2023-10-13T07:42:04;19.10;99.90
48946;DHT22;34999;50.940;3.998;2023-10-13T07:44:42;19.20;99.90
48946;DHT22;34999;50.940;3.998;2023-10-13T07:47:14;19.30;99.90
48946;DHT22;34999;50.940;3.998;2023-10-13T07:49:45;19.40;99.90
48946;DHT22;34999;50.940;3.998;2023-10-13T07:52:18;19.50;99.90
48946;DHT22;34999;50.940;3.998;2023-10-13T07:54:57;19.60;99.90
48946;DHT22;34999;50.940;3.998;2023-10-13T07:57:41;19.70;99.90
48946;DHT22;34999;50.940;3.998;2023-10-13T08:00:22;19.70;99.90
48946;DHT22;34999;50.940;3.998;2023-10-13T08:02:57;19.80;99.90
48946;DHT22;34999;50.940;3.998;2023-10-13T08:05:37;19.90;99.90
48946;DHT22;34999;50.940;3.998;2023-10-13T08:08:23;20.00;99.90
48946;DHT22;34999;50.940;3.998;2023-10-13T08:10:53;20.00;99.90
48946;DHT22;34999;50.940;3.998;2023-10-13T08:13:25;20.00;99.90
48946;DHT22;34999;50.940;3.998;2023-10-13T08:15:53;19.90;99.90
48946;DHT22;34999;50.940;3.998;2023-10-13T08:18:26;20.00;99.90
48946;DHT22;34999;50.940;3.998;2023-10-13T08:20:58;20.00;99.90
48946;DHT22;34999;50.940;3.998;2023-10-13T08:23:31;20.00;99.90
48946;DHT22;34999;50.940;3.998;2023-10-13T08:26:23;20.10;99.90
48946;DHT22;34999;50.940;3.998;2023-10-13T08:28:58;20.10;99.90
48946;DHT22;34999;50.940;3.998;2023-10-13T08:31:48;20.00;99.90
48946;DHT22;34999;50.940;3.998;2023-10-13T08:34:32;20.00;99.90
48946;DHT22;34999;50.940;3.998;2023-10-13T08:37:07;20.10;99.90
48946;DHT22;34999;50.940;3.998;2023-10-13T08:39:56;20.10;99.90
48946;DHT22;34999;50.940;3.998;2023-10-13T08:42:43;20.10;99.90
48946;DHT22;34999;50.940;3.998;2023-10-13T08:45:38;20.10;99.90
48946;DHT22;34999;50.940;3.998;2023-10-13T08:48:26;20.10;99.90
48946;DHT22;34999;50.940;3.998;2023-10-13T08:51:00;20.20;99.90
48946;DHT22;34999;50.940;3.998;2023-10-13T08:53:37;20.30;99.90
48946;DHT22;34999;50.940;3.998;2023-10-13T08:56:19;20.40;99.90
48946;DHT22;34999;50.940;3.998;2023-10-13T08:59:01;20.40;99.90
48946;DHT22;34999;50.940;3.998;2023-10-13T09:01:38;20.40;99.90
48946;DHT22;34999;50.940;3.998;2023-10-13T09:04:14;20.50;99.90
48946;DHT22;34999;50.940;3.998;2023-10-13T09:06:53;20.50;99.90
48946;DHT22;34999;50.940;3.998;2023-10-13T09:09:46;20.50;99.90
48946;DHT22;34999;50.940;3.998;2023-10-13T09:12:32;20.40;99.90
48946;DHT22;34999;50.940;3.998;2023-10-13T09:15:31;20.40;99.90
48946;DHT22;34999;50.940;3.998;2023-10-13T09:18:27;20.50;99.90
48946;DHT22;34999;50.940;3.998;2023-10-13T09:21:15;20.50;99.90
48946;DHT22;34999;50.940;3.998;2023-10-13T09:24:01;20.50;99.90
48946;DHT22;34999;50.940;3.998;2023-10-13T09:26:43;20.50;99.90
48946;DHT22;34999;50.940;3.998;2023-10-13T09:29:15;20.60;99.90
48946;DHT22;34999;50.940;3.998;2023-10-13T09:32:02;20.60;99.90
48946;DHT22;34999;50.940;3.998;2023-10-13T09:34:32;20.60;99.90
48946;DHT22;34999;50.940;3.998;2023-10-13T09:37:03;20.60;99.90
48946;DHT22;34999;50.940;3.998;2023-10-13T09:39:32;20.60;99.90
48946;DHT22;34999;50.940;3.998;2023-10-13T09:42:14;20.60;99.90
48946;DHT22;34999;50.940;3.998;2023-10-13T09:44:46;20.50;99.90
48946;DHT22;34999;50.940;3.998;2023-10-13T09:47:23;20.50;99.90
48946;DHT22;34999;50.940;3.998;2023-10-13T09:50:01;20.50;99.90
48946;DHT22;34999;50.940;3.998;2023-10-13T09:52:34;20.50;99.90
48946;DHT22;34999;50.940;3.998;2023-10-13T09:55:13;20.50;99.90
48946;DHT22;34999;50.940;3.998;2023-10-13T09:57:52;20.50;99.90
48946;DHT22;34999;50.940;3.998;2023-10-13T10:00:29;20.50;99.90
48946;DHT22;34999;50.940;3.998;2023-10-13T10:03:14;20.60;99.90
48946;DHT22;34999;50.940;3.998;2023-10-13T10:05:59;20.60;99.90
48946;DHT22;34999;50.940;3.998;2023-10-13T10:08:31;20.70;99.90
48946;DHT22;34999;50.940;3.998;2023-10-13T10:11:12;20.70;99.90
48946;DHT22;34999;50.940;3.998;2023-10-13T10:13:51;20.80;99.90
48946;DHT22;34999;50.940;3.998;2023-10-13T10:16:37;20.80;99.90
48946;DHT22;34999;50.940;3.998;2023-10-13T10:19:09;20.80;99.90
48946;DHT22;34999;50.940;3.998;2023-10-13T10:21:39;20.90;99.90
48946;DHT22;34999;50.940;3.998;2023-10-13T10:24:15;21.00;99.90
48946;DHT22;34999;50.940;3.998;2023-10-13T10:26:51;21.00;99.90
48946;DHT22;34999;50.940;3.998;2023-10-13T10:29:20;21.00;99.90
48946;DHT22;34999;50.940;3.998;2023-10-13T10:31:48;21.00;99.90
48946;DHT22;34999;50.940;3.998;2023-10-13T10:34:18;21.10;99.90
48946;DHT22;34999;50.940;3.998;2023-10-13T10:36:54;21.10;99.90
48946;DHT22;34999;50.940;3.998;2023-10-13T10:39:33;21.20;99.90
48946;DHT22;34999;50.940;3.998;2023-10-13T10:42:12;21.20;99.90
48946;DHT22;34999;50.940;3.998;2023-10-13T10:44:44;21.20;99.90
48946;DHT22;34999;50.940;3.998;2023-10-13T10:47:15;21.30;99.90
48946;DHT22;34999;50.940;3.998;2023-10-13T10:49:59;21.20;99.90
48946;DHT22;34999;50.940;3.998;2023-10-13T10:52:36;21.30;99.90
48946;DHT22;34999;50.940;3.998;2023-10-13T10:55:07;21.30;99.90
48946;DHT22;34999;50.940;3.998;2023-10-13T10:57:36;21.30;99.90
48946;DHT22;34999;50.940;3.998;2023-10-13T11:00:07;21.30;99.90
48946;DHT22;34999;50.940;3.998;2023-10-13T11:02:53;21.30;99.90
48946;DHT22;34999;50.940;3.998;2023-10-13T11:05:23;21.40;99.90
48946;DHT22;34999;50.940;3.998;2023-10-13T11:08:01;21.40;99.90
48946;DHT22;34999;50.940;3.998;2023-10-13T11:10:36;21.40;99.90
48946;DHT22;34999;50.940;3.998;2023-10-13T11:13:06;21.40;99.90
48946;DHT22;34999;50.940;3.998;2023-10-13T11:15:42;21.40;99.90
48946;DHT22;34999;50.940;3.998;2023-10-13T11:18:12;21.50;99.90
48946;DHT22;34999;50.940;3.998;2023-10-13T11:20:49;21.70;99.90
48946;DHT22;34999;50.940;3.998;2023-10-13T11:23:23;21.80;99.90
48946;DHT22;34999;50.940;3.998;2023-10-13T11:25:56;21.80;99.90
48946;DHT22;34999;50.940;3.998;2023-10-13T11:28:26;21.90;99.90
48946;DHT22;34999;50.940;3.998;2023-10-13T11:30:56;22.00;99.90
48946;DHT22;34999;50.940;3.998;2023-10-13T11:33:27;22.10;99.90
48946;DHT22;34999;50.940;3.998;2023-10-13T11:35:57;22.20;99.90
48946;DHT22;34999;50.940;3.998;2023-10-13T11:38:30;22.20;99.90
48946;DHT22;34999;50.940;3.998;2023-10-13T11:41:11;22.20;99.90
48946;DHT22;34999;50.940;3.998;2023-10-13T11:43:48;22.30;99.90
48946;DHT22;34999;50.940;3.998;2023-10-13T11:46:39;22.30;99.90
48946;DHT22;34999;50.940;3.998;2023-10-13T11:49:25;22.30;99.90
48946;DHT22;34999;50.940;3.998;2023-10-13T11:52:04;22.40;99.90
48946;DHT22;34999;50.940;3.998;2023-10-13T11:54:54;22.50;99.90
48946;DHT22;34999;50.940;3.998;2023-10-13T11:57:22;22.50;99.90
48946;DHT22;34999;50.940;3.998;2023-10-13T11:59:51;22.40;99.90
48946;DHT22;34999;50.940;3.998;2023-10-13T12:02:23;22.40;99.90
48946;DHT22;34999;50.940;3.998;2023-10-13T12:05:09;22.30;99.90
48946;DHT22;34999;50.940;3.998;2023-10-13T12:07:40;22.30;99.90
48946;DHT22;34999;50.940;3.998;2023-10-13T12:10:16;22.30;99.90
48946;DHT22;34999;50.940;3.998;2023-10-13T12:13:01;22.20;99.90
48946;DHT22;34999;50.940;3.998;2023-10-13T12:15:36;22.20;99.90
48946;DHT22;34999;50.940;3.998;2023-10-13T12:18:18;22.20;99.90
48946;DHT22;34999;50.940;3.998;2023-10-13T12:20:50;22.20;99.90
48946;DHT22;34999;50.940;3.998;2023-10-13T12:23:18;22.20;99.90
48946;DHT22;34999;50.940;3.998;2023-10-13T12:25:58;22.20;99.90
48946;DHT22;34999;50.940;3.998;2023-10-13T12:28:33;22.20;99.90
48946;DHT22;34999;50.940;3.998;2023-10-13T12:31:08;22.30;99.90
48946;DHT22;34999;50.940;3.998;2023-10-13T12:33:39;22.30;99.90
48946;DHT22;34999;50.940;3.998;2023-10-13T12:36:08;22.40;99.90
48946;DHT22;34999;50.940;3.998;2023-10-13T12:38:54;22.50;99.90
48946;DHT22;34999;50.940;3.998;2023-10-13T12:41:56;22.60;99.90
48946;DHT22;34999;50.940;3.998;2023-10-13T12:44:42;22.70;99.90
48946;DHT22;34999;50.940;3.998;2023-10-13T12:47:28;22.70;99.90
48946;DHT22;34999;50.940;3.998;2023-10-13T12:50:14;22.70;99.90
48946;DHT22;34999;50.940;3.998;2023-10-13T12:52:53;22.70;99.90
48946;DHT22;34999;50.940;3.998;2023-10-13T12:55:21;22.60;99.90
48946;DHT22;34999;50.940;3.998;2023-10-13T12:57:53;22.60;99.90
48946;DHT22;34999;50.940;3.998;2023-10-13T13:00:22;22.50;99.90
48946;DHT22;34999;50.940;3.998;2023-10-13T13:03:00;22.50;99.90
48946;DHT22;34999;50.940;3.998;2023-10-13T13:05:39;22.50;99.90
48946;DHT22;34999;50.940;3.998;2023-10-13T13:08:12;22.50;99.90
48946;DHT22;34999;50.940;3.998;2023-10-13T13:10:49;22.60;99.90
48946;DHT22;34999;50.940;3.998;2023-10-13T13:13:20;22.60;99.90
48946;DHT22;34999;50.940;3.998;2023-10-13T13:15:52;22.60;99.90
48946;DHT22;34999;50.940;3.998;2023-10-13T13:18:21;22.70;99.90
48946;DHT22;34999;50.940;3.998;2023-10-13T13:20:49;22.60;99.90
48946;DHT22;34999;50.940;3.998;2023-10-13T13:23:21;22.60;99.90
48946;DHT22;34999;50.940;3.998;2023-10-13T13:25:53;22.60;99.90
48946;DHT22;34999;50.940;3.998;2023-10-13T13:28:26;22.70;99.90
48946;DHT22;34999;50.940;3.998;2023-10-13T13:30:57;22.70;99.90
48946;DHT22;34999;50.940;3.998;2023-10-13T13:33:25;22.70;99.90
48946;DHT22;34999;50.940;3.998;2023-10-13T13:36:00;22.60;99.90
48946;DHT22;34999;50.940;3.998;2023-10-13T13:38:28;22.70;99.90
48946;DHT22;34999;50.940;3.998;2023-10-13T13:40:59;22.70;99.90
48946;DHT22;34999;50.940;3.998;2023-10-13T13:43:31;22.70;99.90
48946;DHT22;34999;50.940;3.998;2023-10-13T13:46:05;22.70;99.90
48946;DHT22;34999;50.940;3.998;2023-10-13T13:48:37;22.80;99.90
48946;DHT22;34999;50.940;3.998;2023-10-13T13:51:06;22.80;99.90
48946;DHT22;34999;50.940;3.998;2023-10-13T13:53:41;22.90;99.90
48946;DHT22;34999;50.940;3.998;2023-10-13T13:56:13;22.80;99.90
48946;DHT22;34999;50.940;3.998;2023-10-13T13:58:46;22.80;99.90
48946;DHT22;34999;50.940;3.998;2023-10-13T14:01:14;22.80;99.90
48946;DHT22;34999;50.940;3.998;2023-10-13T14:03:47;22.60;99.90
48946;DHT22;34999;50.940;3.998;2023-10-13T14:06:19;22.60;99.90
48946;DHT22;34999;50.940;3.998;2023-10-13T14:08:52;22.50;99.90
48946;DHT22;34999;50.940;3.998;2023-10-13T14:11:25;22.50;99.90
48946;DHT22;34999;50.940;3.998;2023-10-13T14:14:13;22.40;99.90
48946;DHT22;34999;50.940;3.998;2023-10-13T14:16:56;22.40;99.90
48946;DHT22;34999;50.940;3.998;2023-10-13T14:19:34;22.30;99.90
48946;DHT22;34999;50.940;3.998;2023-10-13T14:22:08;22.30;99.90
48946;DHT22;34999;50.940;3.998;2023-10-13T14:24:40;22.30;99.90
48946;DHT22;34999;50.940;3.998;2023-10-13T14:27:18;22.40;99.90
48946;DHT22;34999;50.940;3.998;2023-10-13T14:29:51;22.30;99.90
48946;DHT22;34999;50.940;3.998;2023-10-13T14:32:24;22.30;99.90
48946;DHT22;34999;50.940;3.998;2023-10-13T14:34:54;22.30;99.90
48946;DHT22;34999;50.940;3.998;2023-10-13T14:37:24;22.40;99.90
48946;DHT22;34999;50.940;3.998;2023-10-13T14:39:57;22.30;99.90
48946;DHT22;34999;50.940;3.998;2023-10-13T14:42:28;22.30;99.90
48946;DHT22;34999;50.940;3.998;2023-10-13T14:45:05;22.30;99.90
48946;DHT22;34999;50.940;3.998;2023-10-13T14:47:39;22.20;99.90
48946;DHT22;34999;50.940;3.998;2023-10-13T14:50:12;22.20;99.90
48946;DHT22;34999;50.940;3.998;2023-10-13T14:52:47;22.20;99.90
48946;DHT22;34999;50.940;3.998;2023-10-13T14:55:15;22.20;99.90
48946;DHT22;34999;50.940;3.998;2023-10-13T14:57:47;22.10;99.90
48946;DHT22;34999;50.940;3.998;2023-10-13T15:00:19;22.00;99.90
48946;DHT22;34999;50.940;3.998;2023-10-13T15:02:53;22.00;99.90
48946;DHT22;34999;50.940;3.998;2023-10-13T15:05:22;22.00;99.90
48946;DHT22;34999;50.940;3.998;2023-10-13T15:07:51;22.00;99.90
48946;DHT22;34999;50.940;3.998;2023-10-13T15:10:19;21.90;99.90
48946;DHT22;34999;50.940;3.998;2023-10-13T15:12:47;22.00;99.90
48946;DHT22;34999;50.940;3.998;2023-10-13T15:15:16;22.00;99.90
48946;DHT22;34999;50.940;3.998;2023-10-13T15:17:48;22.00;99.90
48946;DHT22;34999;50.940;3.998;2023-10-13T15:20:17;21.90;99.90
48946;DHT22;34999;50.940;3.998;2023-10-13T15:22:46;21.90;99.90
48946;DHT22;34999;50.940;3.998;2023-10-13T15:25:16;21.90;99.90
48946;DHT22;34999;50.940;3.998;2023-10-13T15:27:58;21.90;99.90
48946;DHT22;34999;50.940;3.998;2023-10-13T15:30:30;21.90;99.90
48946;DHT22;34999;50.940;3.998;2023-10-13T15:33:13;21.90;99.90
48946;DHT22;34999;50.940;3.998;2023-10-13T15:35:42;21.90;99.90
48946;DHT22;34999;50.940;3.998;2023-10-13T15:38:12;21.90;99.90
48946;DHT22;34999;50.940;3.998;2023-10-13T15:40:42;21.80;99.90
48946;DHT22;34999;50.940;3.998;2023-10-13T15:43:11;21.80;99.90
48946;DHT22;34999;50.940;3.998;2023-10-13T15:45:40;21.70;99.90
48946;DHT22;34999;50.940;3.998;2023-10-13T15:48:10;21.60;99.90
48946;DHT22;34999;50.940;3.998;2023-10-13T15:50:43;21.50;99.90
48946;DHT22;34999;50.940;3.998;2023-10-13T15:53:13;21.50;99.90
48946;DHT22;34999;50.940;3.998;2023-10-13T15:55:41;21.40;99.90
48946;DHT22;34999;50.940;3.998;2023-10-13T15:58:13;21.40;99.90
48946;DHT22;34999;50.940;3.998;2023-10-13T16:00:42;21.40;99.90
48946;DHT22;34999;50.940;3.998;2023-10-13T16:03:12;21.40;99.90
48946;DHT22;34999;50.940;3.998;2023-10-13T16:05:40;21.40;99.90
48946;DHT22;34999;50.940;3.998;2023-10-13T16:08:12;21.40;99.90
48946;DHT22;34999;50.940;3.998;2023-10-13T16:10:41;21.30;99.90
48946;DHT22;34999;50.940;3.998;2023-10-13T16:13:09;21.20;99.90
48946;DHT22;34999;50.940;3.998;2023-10-13T16:15:44;20.90;99.90
48946;DHT22;34999;50.940;3.998;2023-10-13T16:18:15;20.60;99.90
48946;DHT22;34999;50.940;3.998;2023-10-13T16:20:50;20.30;99.90
48946;DHT22;34999;50.940;3.998;2023-10-13T16:23:20;20.20;99.90
48946;DHT22;34999;50.940;3.998;2023-10-13T16:25:49;20.00;99.90